sensor_id;sensor_type;location;lat;lon;timestamp;P1;durP1;ratioP1;P2;durP2;ratioP2
72547;SDS011;60570;50.848;6.776;2022-08-01T00:00:22;1.80;;;0.50;;
72547;SDS011;60570;50.848;6.776;2022-08-01T00:01:22;1.20;;;0.38;;
72547;SDS011;60570;50.848;6.776;2022-08-01T00:02:23;1.48;;;0.50;;
72547;SDS011;60570;50.848;6.776;2022-08-01T00:03:23;3.88;;;0.73;;
72547;SDS011;60570;50.848;6.776;2022-08-01T00:04:23;2.25;;;0.60;;
72547;SDS011;60570;50.848;6.776;2022-08-01T00:05:24;2.42;;;0.63;;
72547;SDS011;60570;50.848;6.776;2022-08-01T00:06:24;2.17;;;0.63;;
72547;SDS011;60570;50.848;6.776;2022-08-01T00:07:25;1.92;;;0.60;;
72547;SDS011;60570;50.848;6.776;2022-08-01T00:08:26;1.77;;;0.60;;
72547;SDS011;60570;50.848;6.776;2022-08-01T00:09:26;1.77;;;0.30;;
72547;SDS011;60570;50.848;6.776;2022-08-01T00:10:26;2.40;;;0.43;;
72547;SDS011;60570;50.848;6.776;2022-08-01T00:11:27;2.55;;;0.50;;
72547;SDS011;60570;50.848;6.776;2022-08-01T00:12:27;2.58;;;0.45;;
72547;SDS011;60570;50.848;6.776;2022-08-01T00:13:28;1.25;;;0.50;;
72547;SDS011;60570;50.848;6.776;2022-08-01T00:14:28;2.30;;;0.50;;
72547;SDS011;60570;50.848;6.776;2022-08-01T00:15:28;2.28;;;0.50;;
72547;SDS011;60570;50.848;6.776;2022-08-01T00:16:29;2.50;;;0.60;;
72547;SDS011;60570;50.848;6.776;2022-08-01T00:17:29;2.17;;;0.50;;
72547;SDS011;60570;50.848;6.776;2022-08-01T00:18:30;1.75;;;0.60;;
72547;SDS011;60570;50.848;6.776;2022-08-01T00:19:30;1.83;;;0.40;;
72547;SDS011;60570;50.848;6.776;2022-08-01T00:20:31;1.70;;;0.55;;
72547;SDS011;60570;50.848;6.776;2022-08-01T00:21:31;1.73;;;0.60;;
72547;SDS011;60570;50.848;6.776;2022-08-01T00:22:32;2.13;;;0.50;;
72547;SDS011;60570;50.848;6.776;2022-08-01T00:23:33;0.95;;;0.32;;
72547;SDS011;60570;50.848;6.776;2022-08-01T00:24:33;2.17;;;0.50;;
72547;SDS011;60570;50.848;6.776;2022-08-01T00:25:34;2.72;;;0.63;;
72547;SDS011;60570;50.848;6.776;2022-08-01T00:26:34;1.75;;;0.50;;
72547;SDS011;60570;50.848;6.776;2022-08-01T00:27:35;2.17;;;0.50;;
72547;SDS011;60570;50.848;6.776;2022-08-01T00:28:35;2.33;;;0.40;;
72547;SDS011;60570;50.848;6.776;2022-08-01T00:29:36;1.98;;;0.50;;
72547;SDS011;60570;50.848;6.776;2022-08-01T00:30:36;3.55;;;0.63;;
72547;SDS011;60570;50.848;6.776;2022-08-01T00:31:36;1.50;;;0.40;;
72547;SDS011;60570;50.848;6.776;2022-08-01T00:32:37;2.65;;;0.70;;
72547;SDS011;60570;50.848;6.776;2022-08-01T00:33:37;1.90;;;0.50;;
72547;SDS011;60570;50.848;6.776;2022-08-01T00:34:38;1.13;;;0.50;;
72547;SDS011;60570;50.848;6.776;2022-08-01T00:35:38;0.93;;;0.30;;
72547;SDS011;60570;50.848;6.776;2022-08-01T00:36:38;1.38;;;0.40;;
72547;SDS011;60570;50.848;6.776;2022-08-01T00:37:39;1.70;;;0.50;;
72547;SDS011;60570;50.848;6.776;2022-08-01T00:38:39;1.25;;;0.40;;
72547;SDS011;60570;50.848;6.776;2022-08-01T00:39:39;1.30;;;0.50;;
72547;SDS011;60570;50.848;6.776;2022-08-01T00:40:40;1.60;;;0.45;;
72547;SDS011;60570;50.848;6.776;2022-08-01T00:41:40;2.20;;;0.55;;
72547;SDS011;60570;50.848;6.776;2022-08-01T00:42:41;1.70;;;0.63;;
72547;SDS011;60570;50.848;6.776;2022-08-01T00:43:41;1.92;;;0.55;;
72547;SDS011;60570;50.848;6.776;2022-08-01T00:44:42;2.33;;;0.52;;
72547;SDS011;60570;50.848;6.776;2022-08-01T00:45:42;2.45;;;0.52;;
72547;SDS011;60570;50.848;6.776;2022-08-01T00:46:42;0.80;;;0.40;;
72547;SDS011;60570;50.848;6.776;2022-08-01T00:47:43;2.35;;;0.82;;
72547;SDS011;60570;50.848;6.776;2022-08-01T00:48:43;2.00;;;0.60;;
72547;SDS011;60570;50.848;6.776;2022-08-01T00:49:44;2.03;;;0.60;;
72547;SDS011;60570;50.848;6.776;2022-08-01T00:50:44;3.65;;;0.85;;
72547;SDS011;60570;50.848;6.776;2022-08-01T00:51:45;1.33;;;0.45;;
72547;SDS011;60570;50.848;6.776;2022-08-01T00:52:45;2.42;;;0.50;;
72547;SDS011;60570;50.848;6.776;2022-08-01T00:53:45;0.95;;;0.40;;
72547;SDS011;60570;50.848;6.776;2022-08-01T00:54:46;1.65;;;0.40;;
72547;SDS011;60570;50.848;6.776;2022-08-01T00:55:47;1.05;;;0.45;;
72547;SDS011;60570;50.848;6.776;2022-08-01T00:56:48;4.15;;;0.82;;
72547;SDS011;60570;50.848;6.776;2022-08-01T00:57:48;2.28;;;0.60;;
72547;SDS011;60570;50.848;6.776;2022-08-01T00:58:49;3.78;;;0.80;;
72547;SDS011;60570;50.848;6.776;2022-08-01T00:59:50;1.42;;;0.60;;
72547;SDS011;60570;50.848;6.776;2022-08-01T01:00:52;1.70;;;0.47;;
72547;SDS011;60570;50.848;6.776;2022-08-01T01:01:52;3.22;;;0.60;;
72547;SDS011;60570;50.848;6.776;2022-08-01T01:02:53;1.65;;;0.45;;
72547;SDS011;60570;50.848;6.776;2022-08-01T01:03:53;1.25;;;0.50;;
72547;SDS011;60570;50.848;6.776;2022-08-01T01:04:54;2.10;;;0.55;;
72547;SDS011;60570;50.848;6.776;2022-08-01T01:07:17;1.90;;;0.50;;
72547;SDS011;60570;50.848;6.776;2022-08-01T01:08:24;2.00;;;0.75;;
72547;SDS011;60570;50.848;6.776;2022-08-01T01:09:42;2.35;;;0.63;;
72547;SDS011;60570;50.848;6.776;2022-08-01T01:10:54;1.88;;;0.50;;
72547;SDS011;60570;50.848;6.776;2022-08-01T01:13:11;1.90;;;0.50;;
72547;SDS011;60570;50.848;6.776;2022-08-01T01:14:21;2.25;;;0.52;;
72547;SDS011;60570;50.848;6.776;2022-08-01T01:15:34;1.65;;;0.40;;
72547;SDS011;60570;50.848;6.776;2022-08-01T01:16:51;1.45;;;0.50;;
72547;SDS011;60570;50.848;6.776;2022-08-01T01:19:05;1.95;;;0.40;;
72547;SDS011;60570;50.848;6.776;2022-08-01T01:20:12;1.95;;;0.60;;
72547;SDS011;60570;50.848;6.776;2022-08-01T01:22:19;2.00;;;0.50;;
72547;SDS011;60570;50.848;6.776;2022-08-01T01:23:30;1.63;;;0.52;;
72547;SDS011;60570;50.848;6.776;2022-08-01T01:24:42;3.55;;;0.60;;
72547;SDS011;60570;50.848;6.776;2022-08-01T01:28:30;1.85;;;0.60;;
72547;SDS011;60570;50.848;6.776;2022-08-01T01:29:36;2.75;;;0.70;;
72547;SDS011;60570;50.848;6.776;2022-08-01T01:30:42;2.58;;;0.77;;
72547;SDS011;60570;50.848;6.776;2022-08-01T01:31:48;2.90;;;0.57;;
72547;SDS011;60570;50.848;6.776;2022-08-01T01:32:55;2.55;;;0.50;;
72547;SDS011;60570;50.848;6.776;2022-08-01T01:34:00;2.28;;;0.60;;
72547;SDS011;60570;50.848;6.776;2022-08-01T01:35:14;4.13;;;0.50;;
72547;SDS011;60570;50.848;6.776;2022-08-01T01:36:19;1.80;;;0.50;;
72547;SDS011;60570;50.848;6.776;2022-08-01T01:37:23;2.35;;;0.80;;
72547;SDS011;60570;50.848;6.776;2022-08-01T01:38:26;1.58;;;0.50;;
72547;SDS011;60570;50.848;6.776;2022-08-01T01:39:29;1.00;;;0.32;;
72547;SDS011;60570;50.848;6.776;2022-08-01T01:40:30;2.53;;;0.63;;
72547;SDS011;60570;50.848;6.776;2022-08-01T01:41:32;2.53;;;0.70;;
72547;SDS011;60570;50.848;6.776;2022-08-01T01:42:34;1.85;;;0.50;;
72547;SDS011;60570;50.848;6.776;2022-08-01T01:43:36;1.10;;;0.50;;
72547;SDS011;60570;50.848;6.776;2022-08-01T01:44:37;1.77;;;0.30;;
72547;SDS011;60570;50.848;6.776;2022-08-01T01:45:38;1.80;;;0.50;;
72547;SDS011;60570;50.848;6.776;2022-08-01T01:46:40;1.80;;;0.50;;
72547;SDS011;60570;50.848;6.776;2022-08-01T01:47:41;3.53;;;0.82;;
72547;SDS011;60570;50.848;6.776;2022-08-01T01:48:44;3.03;;;0.80;;
72547;SDS011;60570;50.848;6.776;2022-08-01T01:49:46;1.75;;;0.55;;
72547;SDS011;60570;50.848;6.776;2022-08-01T01:50:48;1.58;;;0.50;;
72547;SDS011;60570;50.848;6.776;2022-08-01T01:51:51;1.10;;;0.50;;
72547;SDS011;60570;50.848;6.776;2022-08-01T01:52:54;1.08;;;0.50;;
72547;SDS011;60570;50.848;6.776;2022-08-01T01:53:56;1.13;;;0.40;;
72547;SDS011;60570;50.848;6.776;2022-08-01T01:54:59;1.40;;;0.60;;
72547;SDS011;60570;50.848;6.776;2022-08-01T01:56:05;2.15;;;0.70;;
72547;SDS011;60570;50.848;6.776;2022-08-01T01:57:06;2.35;;;0.70;;
72547;SDS011;60570;50.848;6.776;2022-08-01T01:58:09;1.67;;;0.50;;
72547;SDS011;60570;50.848;6.776;2022-08-01T01:59:13;1.40;;;0.55;;
72547;SDS011;60570;50.848;6.776;2022-08-01T02:00:13;2.08;;;0.73;;
72547;SDS011;60570;50.848;6.776;2022-08-01T02:01:15;1.48;;;0.60;;
72547;SDS011;60570;50.848;6.776;2022-08-01T02:02:17;2.42;;;0.60;;
72547;SDS011;60570;50.848;6.776;2022-08-01T02:03:19;2.00;;;0.50;;
72547;SDS011;60570;50.848;6.776;2022-08-01T02:04:22;2.85;;;0.70;;
72547;SDS011;60570;50.848;6.776;2022-08-01T02:05:24;1.67;;;0.57;;
72547;SDS011;60570;50.848;6.776;2022-08-01T02:06:26;1.33;;;0.43;;
72547;SDS011;60570;50.848;6.776;2022-08-01T02:07:27;3.10;;;0.70;;
72547;SDS011;60570;50.848;6.776;2022-08-01T02:08:29;1.52;;;0.57;;
72547;SDS011;60570;50.848;6.776;2022-08-01T02:09:31;3.00;;;0.63;;
72547;SDS011;60570;50.848;6.776;2022-08-01T02:10:34;1.58;;;0.60;;
72547;SDS011;60570;50.848;6.776;2022-08-01T02:11:36;1.38;;;0.52;;
72547;SDS011;60570;50.848;6.776;2022-08-01T02:12:39;2.97;;;0.40;;
72547;SDS011;60570;50.848;6.776;2022-08-01T02:13:55;1.88;;;0.57;;
72547;SDS011;60570;50.848;6.776;2022-08-01T02:14:58;1.67;;;0.70;;
72547;SDS011;60570;50.848;6.776;2022-08-01T02:16:00;2.40;;;0.77;;
72547;SDS011;60570;50.848;6.776;2022-08-01T02:17:01;1.55;;;0.55;;
72547;SDS011;60570;50.848;6.776;2022-08-01T02:18:03;3.60;;;0.50;;
72547;SDS011;60570;50.848;6.776;2022-08-01T02:19:07;2.90;;;0.50;;
72547;SDS011;60570;50.848;6.776;2022-08-01T02:20:08;1.42;;;0.52;;
72547;SDS011;60570;50.848;6.776;2022-08-01T02:21:11;2.58;;;0.65;;
72547;SDS011;60570;50.848;6.776;2022-08-01T02:22:18;2.05;;;0.57;;
72547;SDS011;60570;50.848;6.776;2022-08-01T02:23:28;3.30;;;0.70;;
72547;SDS011;60570;50.848;6.776;2022-08-01T02:24:37;2.55;;;0.65;;
72547;SDS011;60570;50.848;6.776;2022-08-01T02:26:49;3.15;;;0.57;;
72547;SDS011;60570;50.848;6.776;2022-08-01T02:29:10;0.98;;;0.38;;
72547;SDS011;60570;50.848;6.776;2022-08-01T02:30:16;4.47;;;0.60;;
72547;SDS011;60570;50.848;6.776;2022-08-01T02:31:19;1.98;;;0.40;;
72547;SDS011;60570;50.848;6.776;2022-08-01T02:32:31;2.08;;;0.60;;
72547;SDS011;60570;50.848;6.776;2022-08-01T02:33:44;1.48;;;0.50;;
72547;SDS011;60570;50.848;6.776;2022-08-01T02:34:47;3.78;;;0.82;;
72547;SDS011;60570;50.848;6.776;2022-08-01T02:35:51;2.13;;;0.47;;
72547;SDS011;60570;50.848;6.776;2022-08-01T02:36:56;7.38;;;0.70;;
72547;SDS011;60570;50.848;6.776;2022-08-01T02:37:59;2.53;;;0.50;;
72547;SDS011;60570;50.848;6.776;2022-08-01T02:39:03;0.75;;;0.40;;
72547;SDS011;60570;50.848;6.776;2022-08-01T02:40:09;1.45;;;0.50;;
72547;SDS011;60570;50.848;6.776;2022-08-01T02:41:13;1.55;;;0.57;;
72547;SDS011;60570;50.848;6.776;2022-08-01T02:42:19;1.52;;;0.40;;
72547;SDS011;60570;50.848;6.776;2022-08-01T02:43:22;1.63;;;0.50;;
72547;SDS011;60570;50.848;6.776;2022-08-01T02:44:26;2.38;;;0.60;;
72547;SDS011;60570;50.848;6.776;2022-08-01T02:45:31;1.40;;;0.60;;
72547;SDS011;60570;50.848;6.776;2022-08-01T02:46:38;1.70;;;0.45;;
72547;SDS011;60570;50.848;6.776;2022-08-01T02:47:41;2.53;;;0.60;;
72547;SDS011;60570;50.848;6.776;2022-08-01T02:48:44;1.20;;;0.50;;
72547;SDS011;60570;50.848;6.776;2022-08-01T02:49:47;1.05;;;0.40;;
72547;SDS011;60570;50.848;6.776;2022-08-01T02:50:49;2.53;;;0.70;;
72547;SDS011;60570;50.848;6.776;2022-08-01T02:51:52;2.10;;;0.60;;
72547;SDS011;60570;50.848;6.776;2022-08-01T02:52:54;0.88;;;0.40;;
72547;SDS011;60570;50.848;6.776;2022-08-01T02:53:57;2.97;;;0.65;;
72547;SDS011;60570;50.848;6.776;2022-08-01T02:54:58;2.45;;;0.55;;
72547;SDS011;60570;50.848;6.776;2022-08-01T02:56:00;1.00;;;0.40;;
72547;SDS011;60570;50.848;6.776;2022-08-01T02:57:02;1.67;;;0.50;;
72547;SDS011;60570;50.848;6.776;2022-08-01T02:58:04;1.42;;;0.47;;
72547;SDS011;60570;50.848;6.776;2022-08-01T02:59:16;1.65;;;0.60;;
72547;SDS011;60570;50.848;6.776;2022-08-01T03:00:19;2.97;;;0.68;;
72547;SDS011;60570;50.848;6.776;2022-08-01T03:01:19;1.48;;;0.40;;
72547;SDS011;60570;50.848;6.776;2022-08-01T03:02:21;1.60;;;0.60;;
72547;SDS011;60570;50.848;6.776;2022-08-01T03:03:24;2.63;;;0.70;;
72547;SDS011;60570;50.848;6.776;2022-08-01T03:04:25;2.25;;;0.50;;
72547;SDS011;60570;50.848;6.776;2022-08-01T03:05:27;2.25;;;0.50;;
72547;SDS011;60570;50.848;6.776;2022-08-01T03:06:27;2.25;;;0.63;;
72547;SDS011;60570;50.848;6.776;2022-08-01T03:07:29;2.35;;;0.70;;
72547;SDS011;60570;50.848;6.776;2022-08-01T03:08:30;2.60;;;0.50;;
72547;SDS011;60570;50.848;6.776;2022-08-01T03:09:32;1.55;;;0.45;;
72547;SDS011;60570;50.848;6.776;2022-08-01T03:10:36;2.42;;;0.80;;
72547;SDS011;60570;50.848;6.776;2022-08-01T03:11:39;1.58;;;0.52;;
72547;SDS011;60570;50.848;6.776;2022-08-01T03:12:42;1.98;;;0.60;;
72547;SDS011;60570;50.848;6.776;2022-08-01T03:13:44;2.55;;;0.60;;
72547;SDS011;60570;50.848;6.776;2022-08-01T03:14:48;1.65;;;0.20;;
72547;SDS011;60570;50.848;6.776;2022-08-01T03:15:51;2.65;;;0.75;;
72547;SDS011;60570;50.848;6.776;2022-08-01T03:16:55;3.00;;;0.50;;
72547;SDS011;60570;50.848;6.776;2022-08-01T03:17:58;2.45;;;0.68;;
72547;SDS011;60570;50.848;6.776;2022-08-01T03:18:59;1.77;;;0.63;;
72547;SDS011;60570;50.848;6.776;2022-08-01T03:20:01;2.15;;;0.57;;
72547;SDS011;60570;50.848;6.776;2022-08-01T03:21:04;2.30;;;0.63;;
72547;SDS011;60570;50.848;6.776;2022-08-01T03:22:07;2.38;;;0.70;;
72547;SDS011;60570;50.848;6.776;2022-08-01T03:23:11;1.13;;;0.45;;
72547;SDS011;60570;50.848;6.776;2022-08-01T03:24:12;2.10;;;0.77;;
72547;SDS011;60570;50.848;6.776;2022-08-01T03:25:15;2.13;;;0.60;;
72547;SDS011;60570;50.848;6.776;2022-08-01T03:26:17;2.28;;;0.47;;
72547;SDS011;60570;50.848;6.776;2022-08-01T03:27:19;1.38;;;0.63;;
72547;SDS011;60570;50.848;6.776;2022-08-01T03:28:21;1.77;;;0.50;;
72547;SDS011;60570;50.848;6.776;2022-08-01T03:29:22;2.03;;;0.50;;
72547;SDS011;60570;50.848;6.776;2022-08-01T03:30:26;1.45;;;0.52;;
72547;SDS011;60570;50.848;6.776;2022-08-01T03:31:27;2.70;;;0.85;;
72547;SDS011;60570;50.848;6.776;2022-08-01T03:32:30;1.52;;;0.40;;
72547;SDS011;60570;50.848;6.776;2022-08-01T03:33:31;1.23;;;0.55;;
72547;SDS011;60570;50.848;6.776;2022-08-01T03:34:32;2.30;;;0.60;;
72547;SDS011;60570;50.848;6.776;2022-08-01T03:35:33;2.03;;;0.73;;
72547;SDS011;60570;50.848;6.776;2022-08-01T03:36:38;2.35;;;0.60;;
72547;SDS011;60570;50.848;6.776;2022-08-01T03:37:47;1.67;;;0.50;;
72547;SDS011;60570;50.848;6.776;2022-08-01T03:38:50;1.75;;;0.70;;
72547;SDS011;60570;50.848;6.776;2022-08-01T03:40:02;1.73;;;0.50;;
72547;SDS011;60570;50.848;6.776;2022-08-01T03:41:20;2.58;;;0.60;;
72547;SDS011;60570;50.848;6.776;2022-08-01T03:42:23;2.63;;;0.68;;
72547;SDS011;60570;50.848;6.776;2022-08-01T03:43:32;4.18;;;0.73;;
72547;SDS011;60570;50.848;6.776;2022-08-01T03:44:38;1.45;;;0.60;;
72547;SDS011;60570;50.848;6.776;2022-08-01T03:45:41;1.67;;;0.60;;
72547;SDS011;60570;50.848;6.776;2022-08-01T03:46:48;1.80;;;0.60;;
72547;SDS011;60570;50.848;6.776;2022-08-01T03:48:01;5.03;;;0.90;;
72547;SDS011;60570;50.848;6.776;2022-08-01T03:49:06;4.10;;;0.70;;
72547;SDS011;60570;50.848;6.776;2022-08-01T03:50:11;3.28;;;0.70;;
72547;SDS011;60570;50.848;6.776;2022-08-01T03:51:14;3.25;;;0.90;;
72547;SDS011;60570;50.848;6.776;2022-08-01T03:52:17;3.30;;;0.80;;
72547;SDS011;60570;50.848;6.776;2022-08-01T03:53:20;1.58;;;0.50;;
72547;SDS011;60570;50.848;6.776;2022-08-01T03:54:25;2.63;;;0.57;;
72547;SDS011;60570;50.848;6.776;2022-08-01T03:55:31;3.47;;;0.80;;
72547;SDS011;60570;50.848;6.776;2022-08-01T03:56:34;1.25;;;0.43;;
72547;SDS011;60570;50.848;6.776;2022-08-01T03:57:36;4.22;;;0.70;;
72547;SDS011;60570;50.848;6.776;2022-08-01T03:58:38;1.50;;;0.60;;
72547;SDS011;60570;50.848;6.776;2022-08-01T03:59:40;1.30;;;0.50;;
72547;SDS011;60570;50.848;6.776;2022-08-01T04:00:42;2.45;;;0.85;;
72547;SDS011;60570;50.848;6.776;2022-08-01T04:01:44;1.80;;;0.80;;
72547;SDS011;60570;50.848;6.776;2022-08-01T04:02:46;1.40;;;0.50;;
72547;SDS011;60570;50.848;6.776;2022-08-01T04:03:48;2.78;;;0.80;;
72547;SDS011;60570;50.848;6.776;2022-08-01T04:04:49;2.90;;;0.90;;
72547;SDS011;60570;50.848;6.776;2022-08-01T04:05:50;1.40;;;0.50;;
72547;SDS011;60570;50.848;6.776;2022-08-01T04:06:50;2.17;;;0.60;;
72547;SDS011;60570;50.848;6.776;2022-08-01T04:07:53;3.58;;;0.73;;
72547;SDS011;60570;50.848;6.776;2022-08-01T04:08:57;1.15;;;0.52;;
72547;SDS011;60570;50.848;6.776;2022-08-01T04:09:58;1.88;;;0.50;;
72547;SDS011;60570;50.848;6.776;2022-08-01T04:10:58;3.65;;;0.70;;
72547;SDS011;60570;50.848;6.776;2022-08-01T04:11:59;2.83;;;0.90;;
72547;SDS011;60570;50.848;6.776;2022-08-01T04:13:00;1.80;;;0.50;;
72547;SDS011;60570;50.848;6.776;2022-08-01T04:14:00;3.20;;;0.70;;
72547;SDS011;60570;50.848;6.776;2022-08-01T04:15:01;2.40;;;0.85;;
72547;SDS011;60570;50.848;6.776;2022-08-01T04:16:02;2.78;;;0.80;;
72547;SDS011;60570;50.848;6.776;2022-08-01T04:17:03;1.58;;;0.55;;
72547;SDS011;60570;50.848;6.776;2022-08-01T04:18:03;3.20;;;0.63;;
72547;SDS011;60570;50.848;6.776;2022-08-01T04:19:04;2.58;;;0.85;;
72547;SDS011;60570;50.848;6.776;2022-08-01T04:20:07;2.28;;;0.80;;
72547;SDS011;60570;50.848;6.776;2022-08-01T04:21:08;1.73;;;0.77;;
72547;SDS011;60570;50.848;6.776;2022-08-01T04:22:10;2.47;;;0.63;;
72547;SDS011;60570;50.848;6.776;2022-08-01T04:23:13;2.42;;;0.75;;
72547;SDS011;60570;50.848;6.776;2022-08-01T04:24:17;4.95;;;2.20;;
72547;SDS011;60570;50.848;6.776;2022-08-01T04:25:29;2.88;;;0.80;;
72547;SDS011;60570;50.848;6.776;2022-08-01T04:26:34;3.10;;;0.90;;
72547;SDS011;60570;50.848;6.776;2022-08-01T04:27:37;2.60;;;0.95;;
72547;SDS011;60570;50.848;6.776;2022-08-01T04:28:40;2.35;;;0.60;;
72547;SDS011;60570;50.848;6.776;2022-08-01T04:29:43;1.85;;;0.57;;
72547;SDS011;60570;50.848;6.776;2022-08-01T04:30:45;5.18;;;1.35;;
72547;SDS011;60570;50.848;6.776;2022-08-01T04:31:49;2.97;;;0.63;;
72547;SDS011;60570;50.848;6.776;2022-08-01T04:32:54;3.22;;;0.80;;
72547;SDS011;60570;50.848;6.776;2022-08-01T04:33:55;3.30;;;0.70;;
72547;SDS011;60570;50.848;6.776;2022-08-01T04:34:59;6.18;;;2.22;;
72547;SDS011;60570;50.848;6.776;2022-08-01T04:36:03;2.92;;;0.90;;
72547;SDS011;60570;50.848;6.776;2022-08-01T04:37:07;2.95;;;0.70;;
72547;SDS011;60570;50.848;6.776;2022-08-01T04:38:09;2.38;;;1.20;;
72547;SDS011;60570;50.848;6.776;2022-08-01T04:39:13;3.45;;;0.90;;
72547;SDS011;60570;50.848;6.776;2022-08-01T04:40:15;3.67;;;0.90;;
72547;SDS011;60570;50.848;6.776;2022-08-01T04:41:17;4.03;;;0.80;;
72547;SDS011;60570;50.848;6.776;2022-08-01T04:42:18;5.88;;;1.13;;
72547;SDS011;60570;50.848;6.776;2022-08-01T04:43:19;5.55;;;1.70;;
72547;SDS011;60570;50.848;6.776;2022-08-01T04:44:20;9.73;;;2.03;;
72547;SDS011;60570;50.848;6.776;2022-08-01T04:45:20;4.97;;;1.52;;
72547;SDS011;60570;50.848;6.776;2022-08-01T04:46:21;10.63;;;1.42;;
72547;SDS011;60570;50.848;6.776;2022-08-01T04:47:22;4.10;;;1.38;;
72547;SDS011;60570;50.848;6.776;2022-08-01T04:48:23;4.72;;;1.13;;
72547;SDS011;60570;50.848;6.776;2022-08-01T04:49:26;9.05;;;1.73;;
72547;SDS011;60570;50.848;6.776;2022-08-01T04:50:27;6.07;;;1.40;;
72547;SDS011;60570;50.848;6.776;2022-08-01T04:51:28;2.72;;;1.08;;
72547;SDS011;60570;50.848;6.776;2022-08-01T04:52:32;4.97;;;1.30;;
72547;SDS011;60570;50.848;6.776;2022-08-01T04:53:34;3.08;;;1.05;;
72547;SDS011;60570;50.848;6.776;2022-08-01T04:54:35;4.38;;;1.13;;
72547;SDS011;60570;50.848;6.776;2022-08-01T04:55:38;4.95;;;1.30;;
72547;SDS011;60570;50.848;6.776;2022-08-01T04:56:39;5.68;;;1.20;;
72547;SDS011;60570;50.848;6.776;2022-08-01T04:57:41;6.85;;;1.80;;
72547;SDS011;60570;50.848;6.776;2022-08-01T04:58:44;3.85;;;1.30;;
72547;SDS011;60570;50.848;6.776;2022-08-01T04:59:45;4.93;;;1.30;;
72547;SDS011;60570;50.848;6.776;2022-08-01T05:00:46;4.80;;;0.98;;
72547;SDS011;60570;50.848;6.776;2022-08-01T05:01:48;3.70;;;1.23;;
72547;SDS011;60570;50.848;6.776;2022-08-01T05:02:49;4.15;;;1.50;;
72547;SDS011;60570;50.848;6.776;2022-08-01T05:03:50;4.28;;;1.25;;
72547;SDS011;60570;50.848;6.776;2022-08-01T05:04:50;5.10;;;1.30;;
72547;SDS011;60570;50.848;6.776;2022-08-01T05:05:50;3.80;;;1.35;;
72547;SDS011;60570;50.848;6.776;2022-08-01T05:06:51;4.38;;;1.17;;
72547;SDS011;60570;50.848;6.776;2022-08-01T05:07:51;3.55;;;1.10;;
72547;SDS011;60570;50.848;6.776;2022-08-01T05:08:52;4.28;;;1.20;;
72547;SDS011;60570;50.848;6.776;2022-08-01T05:09:52;6.32;;;1.30;;
72547;SDS011;60570;50.848;6.776;2022-08-01T05:10:52;5.55;;;1.45;;
72547;SDS011;60570;50.848;6.776;2022-08-01T05:11:53;5.55;;;1.15;;
72547;SDS011;60570;50.848;6.776;2022-08-01T05:12:53;5.82;;;1.40;;
72547;SDS011;60570;50.848;6.776;2022-08-01T05:13:54;4.20;;;1.25;;
72547;SDS011;60570;50.848;6.776;2022-08-01T05:14:54;3.63;;;1.15;;
72547;SDS011;60570;50.848;6.776;2022-08-01T05:15:55;2.95;;;1.17;;
72547;SDS011;60570;50.848;6.776;2022-08-01T05:16:56;3.20;;;0.90;;
72547;SDS011;60570;50.848;6.776;2022-08-01T05:17:56;4.40;;;1.58;;
72547;SDS011;60570;50.848;6.776;2022-08-01T05:18:57;4.55;;;1.25;;
72547;SDS011;60570;50.848;6.776;2022-08-01T05:19:57;4.35;;;0.98;;
72547;SDS011;60570;50.848;6.776;2022-08-01T05:20:58;6.07;;;1.20;;
72547;SDS011;60570;50.848;6.776;2022-08-01T05:21:58;4.95;;;1.27;;
72547;SDS011;60570;50.848;6.776;2022-08-01T05:23:00;4.38;;;1.50;;
72547;SDS011;60570;50.848;6.776;2022-08-01T05:24:01;4.60;;;1.25;;
72547;SDS011;60570;50.848;6.776;2022-08-01T05:25:02;3.50;;;1.10;;
72547;SDS011;60570;50.848;6.776;2022-08-01T05:26:04;3.85;;;1.25;;
72547;SDS011;60570;50.848;6.776;2022-08-01T05:27:05;3.60;;;1.30;;
72547;SDS011;60570;50.848;6.776;2022-08-01T05:28:07;4.18;;;1.38;;
72547;SDS011;60570;50.848;6.776;2022-08-01T05:29:08;3.90;;;1.27;;
72547;SDS011;60570;50.848;6.776;2022-08-01T05:30:08;3.30;;;1.17;;
72547;SDS011;60570;50.848;6.776;2022-08-01T05:31:09;4.47;;;1.20;;
72547;SDS011;60570;50.848;6.776;2022-08-01T05:32:10;3.80;;;1.20;;
72547;SDS011;60570;50.848;6.776;2022-08-01T05:33:11;3.80;;;1.25;;
72547;SDS011;60570;50.848;6.776;2022-08-01T05:34:11;4.00;;;1.20;;
72547;SDS011;60570;50.848;6.776;2022-08-01T05:35:11;5.95;;;1.30;;
72547;SDS011;60570;50.848;6.776;2022-08-01T05:36:12;3.38;;;1.10;;
72547;SDS011;60570;50.848;6.776;2022-08-01T05:37:12;4.47;;;1.30;;
72547;SDS011;60570;50.848;6.776;2022-08-01T05:38:13;4.07;;;1.65;;
72547;SDS011;60570;50.848;6.776;2022-08-01T05:39:13;5.22;;;1.50;;
72547;SDS011;60570;50.848;6.776;2022-08-01T05:40:14;3.78;;;1.23;;
72547;SDS011;60570;50.848;6.776;2022-08-01T05:41:14;3.28;;;1.20;;
72547;SDS011;60570;50.848;6.776;2022-08-01T05:42:14;3.85;;;1.50;;
72547;SDS011;60570;50.848;6.776;2022-08-01T05:43:15;4.40;;;1.30;;
72547;SDS011;60570;50.848;6.776;2022-08-01T05:44:16;2.92;;;1.10;;
72547;SDS011;60570;50.848;6.776;2022-08-01T05:45:16;4.00;;;1.42;;
72547;SDS011;60570;50.848;6.776;2022-08-01T05:46:17;4.82;;;1.40;;
72547;SDS011;60570;50.848;6.776;2022-08-01T05:47:17;4.18;;;1.52;;
72547;SDS011;60570;50.848;6.776;2022-08-01T05:48:18;4.05;;;1.60;;
72547;SDS011;60570;50.848;6.776;2022-08-01T05:49:18;4.03;;;1.50;;
72547;SDS011;60570;50.848;6.776;2022-08-01T05:50:19;5.32;;;1.40;;
72547;SDS011;60570;50.848;6.776;2022-08-01T05:51:19;4.15;;;1.63;;
72547;SDS011;60570;50.848;6.776;2022-08-01T05:52:19;4.05;;;1.20;;
72547;SDS011;60570;50.848;6.776;2022-08-01T05:53:20;3.55;;;1.52;;
72547;SDS011;60570;50.848;6.776;2022-08-01T05:54:20;3.92;;;1.17;;
72547;SDS011;60570;50.848;6.776;2022-08-01T05:55:21;3.40;;;1.38;;
72547;SDS011;60570;50.848;6.776;2022-08-01T05:56:21;3.70;;;1.50;;
72547;SDS011;60570;50.848;6.776;2022-08-01T05:57:22;4.03;;;1.70;;
72547;SDS011;60570;50.848;6.776;2022-08-01T05:58:22;5.65;;;1.95;;
72547;SDS011;60570;50.848;6.776;2022-08-01T05:59:23;5.53;;;1.50;;
72547;SDS011;60570;50.848;6.776;2022-08-01T06:00:23;2.78;;;1.30;;
72547;SDS011;60570;50.848;6.776;2022-08-01T06:01:23;5.90;;;1.75;;
72547;SDS011;60570;50.848;6.776;2022-08-01T06:02:24;4.65;;;1.50;;
72547;SDS011;60570;50.848;6.776;2022-08-01T06:03:24;4.57;;;1.40;;
72547;SDS011;60570;50.848;6.776;2022-08-01T06:04:25;4.88;;;1.67;;
72547;SDS011;60570;50.848;6.776;2022-08-01T06:05:25;4.85;;;1.75;;
72547;SDS011;60570;50.848;6.776;2022-08-01T06:06:25;4.07;;;1.65;;
72547;SDS011;60570;50.848;6.776;2022-08-01T06:07:26;6.28;;;1.92;;
72547;SDS011;60570;50.848;6.776;2022-08-01T06:08:26;4.00;;;1.38;;
72547;SDS011;60570;50.848;6.776;2022-08-01T06:09:27;3.70;;;1.60;;
72547;SDS011;60570;50.848;6.776;2022-08-01T06:10:27;3.63;;;1.60;;
72547;SDS011;60570;50.848;6.776;2022-08-01T06:11:28;6.22;;;1.60;;
72547;SDS011;60570;50.848;6.776;2022-08-01T06:12:28;5.05;;;1.60;;
72547;SDS011;60570;50.848;6.776;2022-08-01T06:13:28;3.88;;;1.48;;
72547;SDS011;60570;50.848;6.776;2022-08-01T06:14:29;4.32;;;1.70;;
72547;SDS011;60570;50.848;6.776;2022-08-01T06:15:30;4.95;;;1.70;;
72547;SDS011;60570;50.848;6.776;2022-08-01T06:16:31;4.85;;;1.73;;
72547;SDS011;60570;50.848;6.776;2022-08-01T06:17:32;5.00;;;1.88;;
72547;SDS011;60570;50.848;6.776;2022-08-01T06:18:32;4.18;;;1.75;;
72547;SDS011;60570;50.848;6.776;2022-08-01T06:19:33;5.05;;;1.52;;
72547;SDS011;60570;50.848;6.776;2022-08-01T06:20:33;4.20;;;1.73;;
72547;SDS011;60570;50.848;6.776;2022-08-01T06:21:34;3.60;;;1.38;;
72547;SDS011;60570;50.848;6.776;2022-08-01T06:22:34;5.93;;;1.85;;
72547;SDS011;60570;50.848;6.776;2022-08-01T06:23:35;4.60;;;1.80;;
72547;SDS011;60570;50.848;6.776;2022-08-01T06:24:35;4.55;;;1.58;;
72547;SDS011;60570;50.848;6.776;2022-08-01T06:25:36;4.88;;;1.67;;